Scroll down
FLIGHT INFORMATION
United Parcel Service (UPS)

UPS204

At Arrival Gate

EDDK
 KSDF
DATE: 2020-07-22
GATE:  -
GATE DEPARTURE: 04:00
TAKEOFF: 04:13
DATE: 2020-07-22
GATE:  -
LANDING: 13:06
GATE ARRIVAL: 13:11
FLIGHT DATA
Crew: 
Speed: 
505 kts
Altitude: 
38,010 ft
Stage Length: 
3,780.5 nm
Block Time: 
9.1 hrs
Flight Time: 
8.9 hrs
Fuel Used: 
185,452 lb
Cleared Route: EDDK DK910 RF004 RF005 DK911 NVO MAPAD NAVAK OGBOL SOGRI BUB NIK TRARE TOLEN STD EKROS SPY BERGI AMGOD SUPUR MIMVA EMLON LEGRO NALAX LIBSO ODNEK MITSO RIMTO HALIF GETNO REMSI NIBOG RESNO 5620N 5730N 5740N 5750N HOIST YYR YRI YQB BUF CVG KSDF
TRACK DATA
50,000 ft 1,000 kts
AIRCRAFT INFO AND CUMULATIVE STATS
Aircraft Type: 
B744F
Registration: 
SELCAL: 
MSN/LN: 
35669 / 1396
Total Flights: 
2
Total Block Time: 
12.8 hrs
Total Flight Time: 
12.3 hrs
Total Fuel Used: 
262,571 lb
DATALINK LOG | Newest first | Current as of: 2021-09-20 17:27:34
LABEL SEQUENCE CONTENT Dn/Up
QD295013:11 58.8▼ Dn
QC242913:06▼ Dn
2U5103KSDF 220356Z 21005KT 10SM FEW040 FEW150 BKN250 27/21 A3002 RMK AO2 SLP161 FRQ LTGIC DSNT W-N CB DSNT W-N T02670211▲ Up
2S5103KSDF▼ Dn
5U5545KSDF 220125Z 2201/2306 22006KT P6SM FEW035 FM220400 18005KT P6SM VCSH SCT050 FM220600 19005KT P6SM SCT250 FM221800 23010KT P6SM SCT040 BKN200 PROB30 2218/2224 3SM -TSRA BKN040CB▲ Up
5S5545KSDF▼ Dn
QB090804:13▼ Dn
QA555504:00 244.5▼ Dn
A35102CLEARED TO KSDF VIA NVO1R NVO Y868 SOGRI L608 BUB M624 TOLEN N873 SPY L602 NALAX L46 REMSI NIBOG RESNO NATB HOIST N606A YRI J560 YQB BUF CVG RDSTN6. SQUAWK .▲ Up
B35051EDDK KSDF C ▼ Dn
2U5051EDDK 220020Z 03002KT CAVOK 10/08 Q1024 NOSIG▲ Up
2S5050EDDK▼ Dn
Q04949[LINK ACK]▲ Up
Q04949[LINK TEST]▼ Dn


AIRCRAFT HISTORY
FLIGHT DATE FLIGHT NO. ORIGIN DESTINATION CLEARED ROUTE BLOCK TIME FLIGHT TIME FUEL USED PILOT
2020-08-01UPS1320KSDF KONT KSDF APALO PXV PLESS FAM CROCK ULMAN EUNIK BUM FRACA PEABO KIRKE GCK ALS RSK COCAN RHYSS TBC PGS MARUE KONT3.7 hrs3.5 hrs77,119 lbmike teague
2020-07-22UPS204EDDK KSDF EDDK DK910 RF004 RF005 DK911 NVO MAPAD NAVAK OGBOL SOGRI BUB NIK TRARE TOLEN STD EKROS SPY BERGI AMGOD SUPUR MIMVA EMLON LEGRO NALAX LIBSO ODNEK MITSO RIMTO HALIF GETNO REMSI NIBOG RESNO 5620N 5730N 5740N 5750N HOIST YYR YRI YQB BUF CVG KSDF9.1 hrs8.9 hrs185,452 lbMichael Roth